Spring Grove Heights, Indiana
Current Conditions -  °F | °C
As of 4:55 AM on Wednesday 26 Nov 2014 (Local Time) from KVES Reporting Station
Overcast Overcast  
Wind Chill: 23°   Ceiling: 1300
Heat Index: 28°   Visibility: 10mi
Dew Point: 27°   Wind: 5mph
Humidity: 93%   Direction: 30°NNE
Pressure: 30.13"   Gusts: NA
Location:  39.8311°N, 84.8879°W
Report Text: KVES 260955Z AUTO 03004KT 10SM OVC013 M02/M03 A3013 RMK AO2
Loading
Personal Weather Stations






























Interactive Weather Map New forecast layout! Learn more

10-Day Weather Forecast

Advertisements
Track Severe Weather on mobile